Terminal Aerodrome Forecast
Issued by NWS Sterling, VA

Current Version | Previous Version | Graphics & Text | Print | Product List | Glossary On
Versions: 1 2 3 4 5 6 7 8 9 10 11 12 13 14 15 16 17 18 19 20 21 22 23 24 25
000
FTUS41 KLWX 210852 AAA
TAFDCA
TAF AMD
KDCA 210852Z 2109/2206 08003KT P6SM BKN060 OVC150
     FM211100 08006KT P6SM -SHRA OVC060
     FM211600 05005KT 6SM -SHRA BR OVC030
     FM211700 04006KT 6SM -SHRA BR OVC020
     FM211900 04006KT 6SM BR OVC008
     FM220400 31004KT P6SM BKN015
     FM220500 31004KT P6SM SCT008=

USA.gov is the U.S. government's official web portal to all federal, state and local government web resources and services.